createdAt,value
2019-03-19T00:02:14.629Z,100021.91
2019-03-19T00:05:04.634Z,100018.12
2019-03-19T00:07:54.461Z,100008.84
2019-03-19T00:10:44.320Z,100012.64
2019-03-19T00:13:34.286Z,100013.02
2019-03-19T00:16:24.110Z,100015.97
2019-03-19T00:19:13.980Z,100023.06
2019-03-19T00:22:03.829Z,100025.67
2019-03-19T00:24:53.671Z,100013.28
2019-03-19T00:27:43.623Z,100010.77
2019-03-19T00:30:33.529Z,100009.39
2019-03-19T00:33:23.408Z,100018.56
2019-03-19T00:35:53.896Z,100032.42
2019-03-19T00:38:43.741Z,100017.78
2019-03-19T00:41:33.597Z,100011.48
2019-03-19T14:54:14.271Z,100350.56
2019-03-19T14:57:04.074Z,100353.16
2019-03-19T14:59:53.828Z,100351.45
2019-03-19T15:02:43.653Z,100354.81
2019-03-19T15:05:33.443Z,100350.58
2019-03-19T15:08:25.430Z,100363.78
2019-03-19T15:11:14.689Z,100362.50
2019-03-19T15:14:04.508Z,100366.73
2019-03-19T15:17:04.512Z,100359.92
2019-03-19T15:19:37.124Z,100361.61
2019-03-19T15:22:07.675Z,100362.06
2019-03-19T15:24:57.465Z,100367.15
2019-03-19T15:27:47.230Z,100370.55
2019-03-19T15:30:37.123Z,100376.11
2019-03-19T15:33:09.466Z,100378.23
2019-03-19T15:35:59.270Z,100392.29
2019-03-19T15:38:49.046Z,100390.16
2019-03-19T15:41:39.035Z,100391.02
2019-03-19T15:44:28.870Z,100396.53
2019-03-19T15:47:18.677Z,100399.09
2019-03-19T15:50:10.228Z,100408.48
2019-03-19T15:53:00.029Z,100403.31
2019-03-19T15:55:49.792Z,100403.70
2019-03-19T15:58:39.605Z,100396.02
2019-03-19T16:01:29.416Z,100402.38
2019-03-19T16:04:12.877Z,100404.95
2019-03-19T16:07:02.671Z,100413.87
2019-03-19T16:09:52.470Z,100418.53
2019-03-19T16:12:42.269Z,100418.11
2019-03-19T16:15:32.084Z,100415.46
2019-03-19T16:18:21.853Z,100420.97
2019-03-19T16:21:11.709Z,100431.13
2019-03-19T16:24:01.477Z,100430.70
2019-03-19T16:26:31.978Z,100431.15
2019-03-19T16:29:21.745Z,100437.47
2019-03-19T16:31:52.140Z,100444.73
2019-03-19T16:34:41.933Z,100444.64
2019-03-19T16:37:31.746Z,100452.27
2019-03-19T16:40:21.519Z,100453.13
2019-03-19T16:43:11.288Z,100456.12
2019-03-19T16:46:01.159Z,100457.41
2019-03-19T16:48:50.942Z,100465.81
2019-03-19T16:51:40.741Z,100476.46
2019-03-19T16:54:30.549Z,100472.64
2019-03-19T16:57:20.338Z,100482.47
2019-03-19T17:00:13.021Z,100486.27
2019-03-19T17:03:02.777Z,100491.34
2019-03-19T17:05:52.560Z,100496.81
2019-03-19T17:08:42.403Z,100502.45
2019-03-19T17:11:32.230Z,100507.47
2019-03-19T17:14:22.001Z,100512.48
2019-03-19T17:17:11.837Z,100529.53
2019-03-19T17:20:01.596Z,100523.45
2019-03-19T17:22:51.403Z,100530.24
2019-03-19T17:25:41.177Z,100536.97
2019-03-19T17:28:31.018Z,100531.87
2019-03-19T17:31:01.455Z,100535.28
2019-03-19T17:33:31.892Z,100544.11
2019-03-19T17:36:21.664Z,100540.63
2019-03-19T17:39:11.498Z,100543.34
2019-03-19T17:42:01.299Z,100551.79
2019-03-19T17:44:51.094Z,100559.47
2019-03-19T17:50:37.720Z,100563.23
2019-03-19T17:53:27.536Z,100569.19
2019-03-19T17:56:17.484Z,100570.40
2019-03-19T17:59:07.612Z,100570.73
2019-03-19T18:01:57.428Z,100577.11
2019-03-19T18:04:47.228Z,100580.59
2019-03-19T18:07:37.037Z,100581.87
2019-03-19T18:10:07.715Z,100587.86
2019-03-19T18:12:57.531Z,100589.44
2019-03-19T18:15:47.323Z,100590.30
2019-03-19T18:18:37.135Z,100595.44
2019-03-19T18:21:07.560Z,100600.02
2019-03-19T18:23:57.570Z,100609.01
2019-03-19T18:26:47.361Z,100604.73
2019-03-19T18:29:37.212Z,100607.63
2019-03-19T18:32:07.644Z,100620.77
2019-03-19T18:34:57.514Z,100625.09
2019-03-19T18:37:47.263Z,100619.55
2019-03-19T18:40:37.197Z,100630.14
2019-03-19T18:43:07.755Z,100632.78
2019-03-19T18:45:57.714Z,100627.19
2019-03-19T18:48:47.543Z,100634.71
2019-03-19T18:51:37.340Z,100636.39
2019-03-19T18:54:27.102Z,100635.04
2019-03-19T18:57:16.918Z,100637.59
2019-03-19T19:03:32.118Z,100645.19
2019-03-19T19:06:21.927Z,100654.10
2019-03-19T19:09:11.828Z,100654.48
2019-03-19T19:12:01.668Z,100653.56
2019-03-19T19:14:51.483Z,100648.88
2019-03-19T19:17:41.257Z,100658.94
2019-03-19T19:20:31.064Z,100661.75
2019-03-19T19:23:20.852Z,100662.41
2019-03-19T19:26:10.663Z,100667.41
2019-03-19T19:29:00.466Z,100667.45
2019-03-19T19:31:50.253Z,100676.63
2019-03-19T19:34:40.045Z,100673.16
2019-03-19T19:37:29.861Z,100680.84
2019-03-19T19:40:19.617Z,100679.48
2019-03-19T19:43:09.452Z,100685.68
2019-03-19T19:45:59.248Z,100687.91
2019-03-19T19:48:49.064Z,100684.75
2019-03-19T19:51:38.852Z,100690.25
2019-03-19T19:54:28.660Z,100682.62
2019-03-19T19:56:59.058Z,100691.36
2019-03-19T19:59:48.931Z,100691.77
2019-03-19T20:02:38.714Z,100689.31
2019-03-19T20:05:28.534Z,100684.87
2019-03-19T20:07:58.914Z,100690.36
2019-03-19T20:10:48.735Z,100697.55
2019-03-19T20:13:38.521Z,100698.76
2019-03-19T20:16:28.336Z,100698.63
2019-03-19T20:18:58.816Z,100699.02
2019-03-19T20:21:48.641Z,100697.23
2019-03-19T20:24:38.468Z,100704.73
2019-03-19T20:27:28.313Z,100698.73
2019-03-19T20:29:58.869Z,100704.16
2019-03-19T20:32:48.660Z,100710.66
2019-03-19T20:35:38.431Z,100710.26
2019-03-19T20:38:28.234Z,100713.41
2019-03-19T20:40:58.652Z,100720.75
2019-03-19T20:43:48.510Z,100721.30
2019-03-19T20:46:38.309Z,100724.83
2019-03-19T20:49:28.195Z,100725.98
2019-03-19T20:51:58.717Z,100727.61
2019-03-19T20:54:48.534Z,100736.00
2019-03-19T20:57:38.339Z,100726.30
2019-03-19T21:00:10.734Z,100730.66
2019-03-19T21:02:41.306Z,100727.66
2019-03-19T21:05:31.112Z,100729.84
2019-03-19T21:08:20.907Z,100736.03
2019-03-19T21:11:10.780Z,100745.26
2019-03-19T21:14:00.570Z,100738.55
2019-03-19T21:16:50.395Z,100736.59
2019-03-19T21:19:40.196Z,100744.60
2019-03-19T21:22:30.007Z,100746.16
2019-03-19T21:25:19.808Z,100747.56
2019-03-19T21:28:13.944Z,100751.68
2019-03-19T21:30:47.297Z,100760.39
2019-03-19T21:33:37.643Z,100768.03
2019-03-19T21:36:09.703Z,100772.58
2019-03-19T21:38:59.544Z,100767.89
2019-03-19T21:41:49.354Z,100768.13
2019-03-19T21:44:39.693Z,100771.55
2019-03-19T21:47:29.538Z,100771.77
2019-03-19T21:50:19.386Z,100767.94
2019-03-19T21:53:09.167Z,100769.85
2019-03-19T21:55:59.103Z,100762.80
2019-03-19T21:58:48.897Z,100769.02
2019-03-19T22:01:38.776Z,100778.22
2019-03-19T22:04:28.635Z,100780.22
2019-03-19T22:06:59.079Z,100775.05
2019-03-19T22:09:48.929Z,100773.95
2019-03-19T22:12:38.745Z,100769.41
2019-03-19T22:15:28.711Z,100765.83
2019-03-19T22:17:59.140Z,100771.23
2019-03-19T22:20:48.986Z,100768.04
2019-03-19T22:23:38.844Z,100776.14
2019-03-19T22:26:28.639Z,100775.58
2019-03-19T22:28:59.080Z,100780.13
2019-03-19T22:31:49.736Z,100785.92
2019-03-19T22:34:39.567Z,100782.13
2019-03-19T22:37:29.410Z,100783.45
2019-03-19T22:40:19.439Z,100787.41
2019-03-19T22:43:09.282Z,100786.16
2019-03-19T22:45:59.131Z,100787.97
2019-03-19T22:48:49.124Z,100793.12
2019-03-19T22:51:19.678Z,100790.50
2019-03-19T22:54:09.556Z,100789.69
2019-03-19T22:56:59.329Z,100794.25
2019-03-19T22:59:49.123Z,100796.91
2019-03-19T23:02:38.929Z,100798.95
2019-03-19T23:05:28.707Z,100805.91
2019-03-19T23:07:59.092Z,100805.86
2019-03-19T23:10:48.866Z,100808.14
2019-03-19T23:13:38.677Z,100808.33
2019-03-19T23:16:28.455Z,100814.52
2019-03-19T23:18:58.902Z,100818.64
2019-03-19T23:21:48.660Z,100817.40
2019-03-19T23:24:38.525Z,100820.34
2019-03-19T23:27:28.299Z,100828.55
2019-03-19T23:29:58.674Z,100831.27
2019-03-19T23:32:29.062Z,100836.14
2019-03-19T23:34:59.460Z,100832.38
2019-03-19T23:37:49.233Z,100842.70
2019-03-19T23:40:39.040Z,100843.55
2019-03-19T23:43:28.815Z,100843.19
2019-03-19T23:45:59.225Z,100845.53
2019-03-19T23:48:49.039Z,100849.36
2019-03-19T23:51:38.915Z,100856.88
2019-03-19T23:54:28.698Z,100864.67
2019-03-19T23:57:00.787Z,100866.44
2019-03-19T23:59:50.582Z,100867.89
